Sorang, Kazakhstan
Current Conditions -  °F | °C
As of 6:30 PM on Monday 24 Nov 2014 (Local Time) from UAKK Reporting Station
Clear Clear  
Wind Chill: -37°   Ceiling: Unl
Heat Index: -20°   Visibility: 6mi
Dew Point: -26°   Wind: 7mph
Humidity: 76%   Direction: 30°NNE
Pressure: 30.24"   Gusts: NA
Location:  49.78°N, 72.85°E
Report Text: UAKK 241230Z 03003MPS CAVOK M29/M32 Q1024 R05/821055 NOSIG RMKQFE720/0961
Loading
Personal Weather Stations






























Interactive Weather Map New forecast layout! Learn more

10-Day Weather Forecast

Advertisements
Track Severe Weather on mobile